Time;durP1;ratioP1;P1;durP2;ratioP2;P2;SDS_P1;SDS_P2;PMS_P1;PMS_P2;Temp;Humidity;BMP_temperature;BMP_pressure;BME280_temperature;BME280_humidity;BME280_pressure;Samples;Min_cycle;Max_cycle;Signal;HPM_P1;HPM_P2
2022/03/26 00:02:26;;;;;;;0.00;0.00;;;;;;;7.22;52.43;99588.47;5004662;28;20588;-56
2022/03/26 00:04:53;;;;;;;0.00;0.00;;;;;;;7.28;52.08;99582.00;5005183;28;20201;-56
2022/03/26 00:07:19;;;;;;;0.00;0.00;;;;;;;7.20;51.34;99585.13;4997523;28;20214;-56
2022/03/26 00:09:46;;;;;;;0.00;0.00;;;;;;;7.24;51.57;99583.16;4997084;28;20193;-55
2022/03/26 00:12:14;;;;;;;0.00;0.00;;;;;;;7.18;51.13;99578.38;5002698;28;20292;-56
2022/03/26 00:14:41;;;;;;;0.00;0.00;;;;;;;7.22;52.01;99582.41;5000741;28;20250;-55
2022/03/26 00:17:08;;;;;;;0.00;0.00;;;;;;;7.17;51.81;99587.94;5000978;28;20314;-55
2022/03/26 00:19:35;;;;;;;0.00;0.00;;;;;;;7.22;51.30;99580.66;5004785;28;20284;-55
2022/03/26 00:22:02;;;;;;;0.00;0.00;;;;;;;7.17;51.21;99574.97;5009241;28;20698;-55
2022/03/26 00:24:29;;;;;;;0.00;0.00;;;;;;;7.39;50.83;99574.28;5008808;28;20206;-55
2022/03/26 00:26:56;;;;;;;0.00;0.00;;;;;;;7.48;51.54;99588.41;5010798;28;20647;-55
2022/03/26 00:29:24;;;;;;;0.00;0.00;;;;;;;7.37;51.46;99578.75;5013362;28;20230;-55
2022/03/26 00:31:50;;;;;;;0.00;0.00;;;;;;;7.37;51.52;99586.56;5004684;28;20199;-55
2022/03/26 00:34:17;;;;;;;0.00;0.00;;;;;;;7.27;50.78;99585.53;4992900;28;20208;-55
2022/03/26 00:36:44;;;;;;;0.00;0.00;;;;;;;7.38;52.78;99587.41;5000670;28;20223;-56
2022/03/26 00:39:11;;;;;;;0.00;0.00;;;;;;;7.28;52.69;99586.38;5008590;28;20195;-55
2022/03/26 00:41:37;;;;;;;0.00;0.00;;;;;;;7.15;51.94;99591.56;5010936;28;20203;-56
2022/03/26 00:44:05;;;;;;;0.00;0.00;;;;;;;7.23;50.57;99582.31;5007778;28;20275;-55
2022/03/26 00:46:33;;;;;;;0.00;0.00;;;;;;;7.39;50.23;99581.28;5005348;28;20214;-56
2022/03/26 00:48:59;;;;;;;0.00;0.00;;;;;;;7.51;49.72;99575.19;5002085;28;20195;-56
2022/03/26 00:51:29;;;;;;;0.00;0.00;;;;;;;7.71;50.73;99572.16;5010180;28;20200;-56
2022/03/26 00:53:55;;;;;;;0.00;0.00;;;;;;;7.82;50.17;99586.03;4999954;28;20192;-56
2022/03/26 00:56:22;;;;;;;0.00;0.00;;;;;;;7.61;49.99;99577.16;5005280;28;20937;-55
2022/03/26 00:58:49;;;;;;;0.00;0.00;;;;;;;7.74;50.34;99577.94;5009536;28;20563;-55
2022/03/26 01:01:16;;;;;;;0.00;0.00;;;;;;;7.55;49.77;99570.63;4999961;28;20203;-56
2022/03/26 01:03:44;;;;;;;0.00;0.00;;;;;;;7.76;49.74;99576.06;4999539;28;20220;-56
2022/03/26 01:06:11;;;;;;;0.00;0.00;;;;;;;7.62;51.65;99579.66;5002302;28;20792;-56
2022/03/26 01:08:38;;;;;;;0.00;0.00;;;;;;;7.66;49.60;99575.91;5004714;28;20200;-56
2022/03/26 01:11:04;;;;;;;0.00;0.00;;;;;;;7.59;50.03;99582.47;4992104;28;20197;-56
2022/03/26 01:13:34;;;;;;;0.00;0.00;;;;;;;7.68;50.64;99581.81;4992522;28;20671;-56
2022/03/26 01:16:01;;;;;;;0.00;0.00;;;;;;;7.72;50.18;99582.41;4992228;28;20189;-55
2022/03/26 01:18:29;;;;;;;0.00;0.00;;;;;;;7.60;51.41;99583.28;4992558;28;20222;-56
2022/03/26 01:20:57;;;;;;;0.00;0.00;;;;;;;7.53;52.61;99581.13;4992398;28;20772;-55
2022/03/26 01:23:23;;;;;;;0.00;0.00;;;;;;;7.60;48.86;99576.34;4992627;28;20215;-55
2022/03/26 01:25:50;;;;;;;0.00;0.00;;;;;;;8.03;49.58;99579.38;4992105;28;20219;-56
2022/03/26 01:28:17;;;;;;;0.00;0.00;;;;;;;8.32;48.86;99579.88;4992204;28;20204;-55
2022/03/26 01:30:44;;;;;;;0.00;0.00;;;;;;;8.15;49.30;99581.09;4992063;28;20197;-55
2022/03/26 01:33:11;;;;;;;0.00;0.00;;;;;;;8.23;46.89;99577.97;4992321;28;20220;-56
2022/03/26 01:35:38;;;;;;;0.00;0.00;;;;;;;8.09;50.35;99582.38;4991880;28;20661;-56
2022/03/26 01:38:07;;;;;;;0.00;0.00;;;;;;;7.87;51.44;99583.13;4992214;28;20329;-56
2022/03/26 01:40:34;;;;;;;0.00;0.00;;;;;;;7.62;50.67;99578.81;4991174;28;20196;-56
2022/03/26 01:43:00;;;;;;;0.00;0.00;;;;;;;7.37;52.48;99576.16;4992225;28;20300;-56
2022/03/26 01:45:28;;;;;;;0.00;0.00;;;;;;;7.16;53.33;99583.69;4994196;28;20706;-56
2022/03/26 01:47:55;;;;;;;0.00;0.00;;;;;;;7.03;54.00;99580.25;5001843;28;20236;-56
2022/03/26 01:50:23;;;;;;;0.00;0.00;;;;;;;6.85;55.17;99577.16;5015079;28;20672;-55
2022/03/26 01:52:49;;;;;;;0.00;0.00;;;;;;;6.73;56.72;99576.19;5001829;28;20199;-55
2022/03/26 01:55:19;;;;;;;0.00;0.00;;;;;;;6.68;57.20;99579.13;5001214;28;20192;-55
2022/03/26 01:57:46;;;;;;;0.00;0.00;;;;;;;6.57;57.23;99571.22;5002137;28;20223;-55
2022/03/26 02:00:13;;;;;;;0.00;0.00;;;;;;;6.54;57.47;99574.81;5003534;28;20207;-56
2022/03/26 02:02:43;;;;;;;0.00;0.00;;;;;;;6.63;56.31;99571.63;5000610;28;20215;-55
2022/03/26 02:05:10;;;;;;;0.00;0.00;;;;;;;6.72;56.38;99570.19;5001697;28;20226;-55
2022/03/26 02:07:38;;;;;;;0.00;0.00;;;;;;;6.83;55.10;99569.47;5001266;28;20544;-55
2022/03/26 02:10:07;;;;;;;0.00;0.00;;;;;;;6.93;56.10;99565.31;5000171;28;20279;-55
2022/03/26 02:12:36;;;;;;;0.00;0.00;;;;;;;6.93;54.69;99570.50;5001078;28;20219;-55
2022/03/26 02:15:04;;;;;;;0.00;0.00;;;;;;;6.84;54.49;99568.53;5001198;28;20201;-55
2022/03/26 02:17:31;;;;;;;0.00;0.00;;;;;;;6.86;55.35;99566.66;5001858;28;20237;-55
2022/03/26 02:20:00;;;;;;;0.00;0.00;;;;;;;6.75;56.27;99570.00;5000937;28;20196;-55
2022/03/26 02:22:29;;;;;;;0.00;0.00;;;;;;;6.81;55.28;99566.13;4999171;28;20215;-55
2022/03/26 02:24:56;;;;;;;0.00;0.00;;;;;;;6.71;56.34;99565.09;5000519;28;20213;-55
2022/03/26 02:27:24;;;;;;;0.00;0.00;;;;;;;6.69;56.33;99570.41;5001485;28;20214;-55
2022/03/26 02:29:52;;;;;;;0.00;0.00;;;;;;;6.71;55.95;99559.91;5001488;28;20192;-55
2022/03/26 02:32:20;;;;;;;0.00;0.00;;;;;;;6.64;56.49;99562.91;5001019;28;20195;-55
2022/03/26 02:34:48;;;;;;;0.00;0.00;;;;;;;6.63;56.76;99563.84;4999149;28;20247;-55
2022/03/26 02:37:17;;;;;;;0.00;0.00;;;;;;;6.68;56.85;99566.16;5001717;28;20243;-55
2022/03/26 02:39:45;;;;;;;0.00;0.00;;;;;;;6.47;57.91;99561.44;5004025;28;20293;-55
2022/03/26 02:42:13;;;;;;;0.00;0.00;;;;;;;6.35;57.15;99562.25;5001434;28;20186;-55
2022/03/26 02:44:40;;;;;;;0.00;0.00;;;;;;;6.30;56.33;99562.56;5000699;28;20396;-55
2022/03/26 02:47:08;;;;;;;0.00;0.00;;;;;;;6.47;58.09;99558.00;4999584;28;20599;-55
2022/03/26 02:49:35;;;;;;;0.00;0.00;;;;;;;6.47;57.63;99560.59;5001307;28;20190;-55
2022/03/26 02:52:01;;;;;;;0.00;0.00;;;;;;;6.41;57.96;99561.00;5000940;28;20183;-55
2022/03/26 02:54:31;;;;;;;0.00;0.00;;;;;;;6.40;58.85;99567.13;4998597;28;20250;-56
2022/03/26 02:56:58;;;;;;;0.00;0.00;;;;;;;6.29;58.12;99554.88;5000271;28;20290;-56
2022/03/26 02:59:24;;;;;;;0.00;0.00;;;;;;;6.18;58.91;99559.00;5000184;28;20196;-55
2022/03/26 03:01:52;;;;;;;0.00;0.00;;;;;;;6.06;59.65;99564.97;5000010;28;20199;-55
2022/03/26 03:04:20;;;;;;;0.00;0.00;;;;;;;6.02;59.25;99551.38;5000381;28;20218;-56
2022/03/26 03:06:47;;;;;;;0.00;0.00;;;;;;;5.89;61.29;99553.06;5000950;28;20900;-54
2022/03/26 03:09:14;;;;;;;0.00;0.00;;;;;;;5.81;61.02;99556.16;5015627;28;20631;-56
2022/03/26 03:11:42;;;;;;;0.00;0.00;;;;;;;5.91;59.52;99553.78;5000557;28;20201;-55
2022/03/26 03:14:10;;;;;;;0.00;0.00;;;;;;;5.82;59.25;99554.38;5000684;28;20182;-55
2022/03/26 03:16:37;;;;;;;0.00;0.00;;;;;;;5.80;59.50;99558.81;5001279;28;20213;-56
2022/03/26 03:19:05;;;;;;;0.00;0.00;;;;;;;5.78;59.68;99552.91;5000208;28;20187;-55
2022/03/26 03:21:31;;;;;;;0.00;0.00;;;;;;;5.83;60.63;99546.50;4999099;28;20191;-56
2022/03/26 03:23:58;;;;;;;0.00;0.00;;;;;;;5.78;60.04;99548.56;5000255;28;20234;-56
2022/03/26 03:26:25;;;;;;;0.00;0.00;;;;;;;5.79;61.78;99549.38;5000478;28;20232;-56
2022/03/26 03:28:53;;;;;;;0.00;0.00;;;;;;;5.72;60.17;99543.78;4996673;28;20200;-55
2022/03/26 03:31:20;;;;;;;0.00;0.00;;;;;;;5.67;60.73;99546.66;4990441;28;20192;-55
2022/03/26 03:33:47;;;;;;;0.00;0.00;;;;;;;5.55;60.03;99545.66;4990403;28;20195;-56
2022/03/26 03:36:14;;;;;;;0.00;0.00;;;;;;;5.50;60.67;99545.13;4994001;28;20205;-56
2022/03/26 03:38:41;;;;;;;0.00;0.00;;;;;;;5.53;61.48;99546.69;5000112;28;20662;-55
2022/03/26 03:41:09;;;;;;;0.00;0.00;;;;;;;5.39;61.39;99540.59;5014121;28;20187;-56
2022/03/26 03:43:36;;;;;;;0.00;0.00;;;;;;;5.41;61.66;99541.31;5014033;28;20296;-55
2022/03/26 03:46:04;;;;;;;0.00;0.00;;;;;;;5.27;62.06;99533.59;5013596;28;20280;-56
2022/03/26 03:48:30;;;;;;;0.00;0.00;;;;;;;5.27;63.18;99539.59;5014448;28;20255;-56
2022/03/26 03:50:57;;;;;;;0.00;0.00;;;;;;;5.25;63.13;99538.06;5013738;28;20191;-56
2022/03/26 03:53:24;;;;;;;0.00;0.00;;;;;;;5.22;63.74;99536.47;5013897;28;20273;-55
2022/03/26 03:55:53;;;;;;;0.00;0.00;;;;;;;5.13;63.04;99532.69;5013211;28;20220;-56
2022/03/26 03:58:20;;;;;;;0.00;0.00;;;;;;;5.18;63.38;99529.81;4994461;28;20196;-55
2022/03/26 04:00:46;;;;;;;0.00;0.00;;;;;;;5.15;62.72;99535.16;5009460;28;20548;-55
2022/03/26 04:03:16;;;;;;;0.00;0.00;;;;;;;5.09;63.21;99531.22;5013957;28;20220;-56
2022/03/26 04:05:46;;;;;;;0.00;0.00;;;;;;;5.11;63.35;99536.28;5010185;28;20241;-55
2022/03/26 04:08:12;;;;;;;0.00;0.00;;;;;;;5.17;62.98;99526.41;5001902;28;20241;-55
2022/03/26 04:10:39;;;;;;;0.00;0.00;;;;;;;5.12;62.71;99528.44;5004074;28;20725;-55
2022/03/26 04:13:06;;;;;;;0.00;0.00;;;;;;;5.08;62.50;99526.97;5006018;28;20178;-56
2022/03/26 04:15:33;;;;;;;0.00;0.00;;;;;;;5.12;62.38;99525.84;5003262;28;20191;-55
2022/03/26 04:17:59;;;;;;;0.00;0.00;;;;;;;5.23;63.71;99527.78;5002387;28;20243;-55
2022/03/26 04:20:27;;;;;;;0.00;0.00;;;;;;;5.11;63.15;99529.38;5002911;28;20192;-55
2022/03/26 04:22:54;;;;;;;0.00;0.00;;;;;;;5.10;63.43;99529.44;5001966;28;20223;-55
2022/03/26 04:25:21;;;;;;;0.00;0.00;;;;;;;5.27;62.50;99524.06;5003883;28;20194;-55
2022/03/26 04:27:49;;;;;;;0.00;0.00;;;;;;;5.24;63.33;99526.84;5002906;28;20219;-55
2022/03/26 04:30:16;;;;;;;0.00;0.00;;;;;;;5.24;62.32;99524.25;5001440;28;20586;-55
2022/03/26 04:32:43;;;;;;;0.00;0.00;;;;;;;5.26;63.18;99532.75;5003286;28;20551;-55
2022/03/26 04:35:10;;;;;;;0.00;0.00;;;;;;;5.20;62.98;99535.72;5002649;28;20222;-56
2022/03/26 04:37:38;;;;;;;0.00;0.00;;;;;;;5.10;63.35;99532.03;5001654;28;20215;-54
2022/03/26 04:40:09;;;;;;;0.00;0.00;;;;;;;5.16;63.38;99534.25;5002931;28;20194;-55
2022/03/26 04:42:36;;;;;;;0.00;0.00;;;;;;;4.99;63.93;99530.94;5004536;28;20190;-55
2022/03/26 04:45:03;;;;;;;0.00;0.00;;;;;;;4.90;64.31;99534.06;5007458;28;20290;-55
2022/03/26 04:47:30;;;;;;;0.00;0.00;;;;;;;4.80;64.82;99538.97;5001819;28;20212;-55
2022/03/26 04:49:56;;;;;;;0.00;0.00;;;;;;;4.82;64.56;99536.28;5003584;28;20663;-55
2022/03/26 04:52:23;;;;;;;0.00;0.00;;;;;;;4.80;65.14;99540.72;5000319;28;20196;-55
2022/03/26 04:54:51;;;;;;;0.00;0.00;;;;;;;4.70;64.89;99545.59;4999628;28;20270;-55
2022/03/26 04:57:18;;;;;;;0.00;0.00;;;;;;;4.65;65.40;99545.91;5010449;28;20227;-55
2022/03/26 04:59:45;;;;;;;0.00;0.00;;;;;;;4.60;66.22;99547.91;4995193;28;20258;-55
2022/03/26 05:02:12;;;;;;;0.00;0.00;;;;;;;4.53;66.31;99544.84;5011144;28;20205;-55
2022/03/26 05:04:39;;;;;;;0.00;0.00;;;;;;;4.51;65.95;99545.88;5011867;28;20216;-54
2022/03/26 05:07:45;;;;;;;0.00;0.00;;;;;;;4.47;66.49;99546.97;5012236;28;20213;-54
2022/03/26 05:09:54;;;;;;;0.00;0.00;;;;;;;4.41;66.53;99546.38;5011528;28;20226;-55
2022/03/26 05:12:21;;;;;;;0.00;0.00;;;;;;;4.48;67.23;99549.44;5012339;28;20675;-55
2022/03/26 05:14:47;;;;;;;0.00;0.00;;;;;;;4.48;66.86;99557.19;5011494;28;20182;-54
2022/03/26 05:17:14;;;;;;;0.00;0.00;;;;;;;4.46;67.28;99547.88;5012021;28;20219;-55
2022/03/26 05:19:41;;;;;;;0.00;0.00;;;;;;;4.49;66.69;99558.03;5012031;28;20193;-55
2022/03/26 05:22:07;;;;;;;0.00;0.00;;;;;;;4.54;66.52;99563.78;5011968;28;20286;-55
2022/03/26 05:24:34;;;;;;;0.00;0.00;;;;;;;4.56;66.37;99555.00;5011499;28;20789;-55
2022/03/26 05:27:03;;;;;;;0.00;0.00;;;;;;;4.65;67.54;99553.66;5011999;28;20216;-55
2022/03/26 05:29:30;;;;;;;0.00;0.00;;;;;;;4.62;66.92;99559.00;5011643;28;20210;-55
2022/03/26 05:31:56;;;;;;;0.00;0.00;;;;;;;4.65;66.89;99558.81;5011793;28;20191;-55
2022/03/26 05:34:23;;;;;;;0.00;0.00;;;;;;;4.78;65.56;99553.75;5011367;28;20188;-55
2022/03/26 05:36:50;;;;;;;0.00;0.00;;;;;;;5.08;64.53;99563.19;5011234;28;20206;-55
2022/03/26 05:39:16;;;;;;;0.00;0.00;;;;;;;5.33;64.00;99556.50;5005508;28;20245;-57
2022/03/26 05:41:43;;;;;;;0.00;0.00;;;;;;;5.62;62.05;99561.66;5000470;28;20198;-56
2022/03/26 05:44:11;;;;;;;0.00;0.00;;;;;;;5.66;61.58;99563.13;4998895;28;20214;-56
2022/03/26 05:46:38;;;;;;;0.00;0.00;;;;;;;5.64;62.74;99572.75;5017189;28;20589;-56
2022/03/26 05:49:05;;;;;;;0.00;0.00;;;;;;;5.59;62.85;99574.78;5010324;28;20201;-54
2022/03/26 05:51:32;;;;;;;0.00;0.00;;;;;;;5.45;64.17;99579.06;5007470;28;20185;-54
2022/03/26 05:53:59;;;;;;;0.00;0.00;;;;;;;5.34;64.09;99580.66;5010499;28;20191;-54
2022/03/26 05:56:26;;;;;;;0.00;0.00;;;;;;;5.25;65.02;99597.59;5010781;28;20277;-55
2022/03/26 05:58:52;;;;;;;0.00;0.00;;;;;;;5.19;65.12;99593.59;5011111;28;20234;-55
2022/03/26 06:01:22;;;;;;;0.00;0.00;;;;;;;5.09;64.68;99601.09;5010668;28;20221;-55
2022/03/26 06:03:49;;;;;;;0.00;0.00;;;;;;;5.03;64.71;99611.81;5011207;28;20201;-55
2022/03/26 06:06:16;;;;;;;0.00;0.00;;;;;;;4.99;65.71;99607.75;5006524;28;20210;-54
2022/03/26 06:08:43;;;;;;;0.00;0.00;;;;;;;4.92;65.08;99603.84;5010376;28;20196;-55
2022/03/26 06:11:10;;;;;;;0.00;0.00;;;;;;;4.89;64.84;99612.59;5010922;28;20200;-55
2022/03/26 06:13:38;;;;;;;0.00;0.00;;;;;;;4.81;64.77;99596.69;5011117;28;20228;-55
2022/03/26 06:16:05;;;;;;;0.00;0.00;;;;;;;4.78;65.44;99617.56;5010903;28;20192;-55
2022/03/26 06:18:33;;;;;;;0.00;0.00;;;;;;;4.78;66.14;99620.16;5011562;28;20186;-55
2022/03/26 06:21:01;;;;;;;0.00;0.00;;;;;;;4.78;66.95;99617.56;5008091;28;20190;-54
2022/03/26 06:23:28;;;;;;;0.00;0.00;;;;;;;4.77;66.66;99619.34;5009720;28;20194;-54
2022/03/26 06:25:54;;;;;;;0.00;0.00;;;;;;;4.79;67.37;99620.09;5009628;28;20198;-55
2022/03/26 06:28:21;;;;;;;0.00;0.00;;;;;;;4.80;67.45;99616.56;5006005;28;20221;-55
2022/03/26 06:30:48;;;;;;;0.00;0.00;;;;;;;4.84;67.49;99614.63;5010443;28;20200;-54
2022/03/26 06:33:16;;;;;;;0.00;0.00;;;;;;;5.06;66.54;99621.13;5010166;28;20212;-54
2022/03/26 06:35:45;;;;;;;0.00;0.00;;;;;;;5.11;65.99;99627.72;5008759;28;20272;-55
2022/03/26 06:38:12;;;;;;;0.00;0.00;;;;;;;5.25;67.61;99623.47;5008253;28;20214;-55
2022/03/26 06:40:42;;;;;;;0.00;0.00;;;;;;;5.32;68.49;99629.91;5006951;28;20194;-54
2022/03/26 06:43:09;;;;;;;0.00;0.00;;;;;;;5.39;68.29;99631.22;5010336;28;20672;-54
2022/03/26 06:45:37;;;;;;;0.00;0.00;;;;;;;5.44;65.86;99634.34;5010121;28;20276;-54
2022/03/26 06:48:04;;;;;;;0.00;0.00;;;;;;;5.52;65.83;99639.09;5010879;28;20217;-54
2022/03/26 06:50:31;;;;;;;0.00;0.00;;;;;;;5.42;66.65;99646.56;5010804;28;20194;-52
2022/03/26 06:52:59;;;;;;;0.00;0.00;;;;;;;5.39;67.25;99636.41;5010018;28;20255;-54
2022/03/26 06:55:27;;;;;;;0.00;0.00;;;;;;;5.47;66.73;99651.47;5009715;28;20199;-55
2022/03/26 06:57:54;;;;;;;0.00;0.00;;;;;;;5.43;66.78;99650.00;5009625;28;20204;-55
2022/03/26 07:00:20;;;;;;;0.00;0.00;;;;;;;5.46;66.53;99649.81;5010294;28;20194;-54
2022/03/26 07:02:47;;;;;;;0.00;0.00;;;;;;;5.52;67.26;99656.38;5010919;28;20193;-54
2022/03/26 07:05:15;;;;;;;0.00;0.00;;;;;;;5.56;66.32;99643.16;5010462;28;20251;-53
2022/03/26 07:07:42;;;;;;;0.00;0.00;;;;;;;5.69;65.78;99648.41;5008281;28;20264;-55
2022/03/26 07:10:11;;;;;;;0.00;0.00;;;;;;;5.75;65.55;99652.41;5007860;28;20239;-55
2022/03/26 07:12:38;;;;;;;0.00;0.00;;;;;;;5.74;66.12;99655.91;5007177;28;20569;-55
2022/03/26 07:15:08;;;;;;;0.00;0.00;;;;;;;5.80;66.85;99649.50;5009821;28;20190;-55
2022/03/26 07:17:38;;;;;;;0.00;0.00;;;;;;;5.87;64.94;99648.19;5010264;28;20214;-54
2022/03/26 07:20:06;;;;;;;0.00;0.00;;;;;;;5.93;64.88;99657.34;5010331;28;20196;-55
2022/03/26 07:22:34;;;;;;;0.00;0.00;;;;;;;5.98;64.90;99657.88;5010378;28;20185;-55
2022/03/26 07:25:01;;;;;;;0.00;0.00;;;;;;;6.09;65.13;99659.84;5010013;28;20196;-54
2022/03/26 07:27:32;;;;;;;0.00;0.00;;;;;;;6.12;64.63;99665.66;5009475;28;20241;-55
2022/03/26 07:29:59;;;;;;;0.00;0.00;;;;;;;6.19;64.39;99666.13;5010221;28;20222;-54
2022/03/26 07:32:25;;;;;;;0.00;0.00;;;;;;;6.23;64.53;99672.78;5010389;28;20205;-55
2022/03/26 07:34:52;;;;;;;0.00;0.00;;;;;;;6.32;64.10;99672.22;5010200;28;20186;-55
2022/03/26 07:37:19;;;;;;;0.00;0.00;;;;;;;6.45;63.90;99673.97;5010470;28;20217;-55
2022/03/26 07:39:46;;;;;;;0.00;0.00;;;;;;;6.58;64.11;99674.88;5010343;28;20194;-55
2022/03/26 07:42:13;;;;;;;0.00;0.00;;;;;;;6.73;63.38;99669.63;5010511;28;20191;-55
2022/03/26 07:44:42;;;;;;;0.00;0.00;;;;;;;6.89;62.51;99680.66;5010099;28;20236;-55
2022/03/26 07:47:08;;;;;;;0.00;0.00;;;;;;;7.01;61.81;99666.00;5010426;28;20217;-55
2022/03/26 07:49:35;;;;;;;0.00;0.00;;;;;;;7.20;60.99;99672.59;5010160;28;20191;-55
2022/03/26 07:52:03;;;;;;;0.00;0.00;;;;;;;7.29;62.35;99669.38;5010315;28;20203;-54
2022/03/26 07:54:29;;;;;;;0.00;0.00;;;;;;;7.38;61.31;99676.53;5010139;28;20249;-55
2022/03/26 07:56:56;;;;;;;0.00;0.00;;;;;;;7.52;60.49;99678.19;5005291;28;20699;-55
2022/03/26 07:59:23;;;;;;;0.00;0.00;;;;;;;7.71;59.82;99681.28;5010062;28;20747;-55
2022/03/26 08:01:51;;;;;;;0.00;0.00;;;;;;;7.79;60.11;99685.00;5009567;28;20195;-55
2022/03/26 08:04:18;;;;;;;0.00;0.00;;;;;;;7.96;59.40;99680.41;5009988;28;20216;-56
2022/03/26 08:06:45;;;;;;;0.00;0.00;;;;;;;8.03;59.19;99686.84;5010269;28;20213;-55
2022/03/26 08:09:12;;;;;;;0.00;0.00;;;;;;;8.14;58.45;99683.47;5010558;28;20192;-55
2022/03/26 08:11:38;;;;;;;0.00;0.00;;;;;;;8.24;56.69;99688.84;5010083;28;20193;-54
2022/03/26 08:14:05;;;;;;;0.00;0.00;;;;;;;8.27;57.41;99693.84;5009729;28;20195;-54
2022/03/26 08:16:32;;;;;;;0.00;0.00;;;;;;;8.43;57.38;99696.16;5010206;28;20215;-55
2022/03/26 08:19:00;;;;;;;0.00;0.00;;;;;;;8.61;55.93;99688.81;5010227;28;20659;-55
2022/03/26 08:21:27;;;;;;;0.00;0.00;;;;;;;8.70;56.47;99695.13;5011004;28;20204;-55
2022/03/26 08:23:54;;;;;;;0.00;0.00;;;;;;;8.84;56.18;99696.72;5013618;28;20192;-55
2022/03/26 08:26:22;;;;;;;0.00;0.00;;;;;;;8.98;55.80;99698.31;5013260;28;20256;-55
2022/03/26 08:28:50;;;;;;;0.00;0.00;;;;;;;9.13;55.50;99701.53;5011971;28;20184;-55
2022/03/26 08:31:17;;;;;;;0.00;0.00;;;;;;;9.20;55.17;99699.28;5012943;28;20272;-55
2022/03/26 08:33:45;;;;;;;0.00;0.00;;;;;;;9.30;54.74;99703.72;5013543;28;20197;-54
2022/03/26 08:36:15;;;;;;;0.00;0.00;;;;;;;9.34;56.49;99704.28;5012606;28;20223;-55
2022/03/26 08:38:44;;;;;;;0.00;0.00;;;;;;;9.50;54.91;99713.56;5013433;28;20216;-54
2022/03/26 08:41:11;;;;;;;0.00;0.00;;;;;;;9.64;56.08;99692.47;5011844;28;20232;-55
2022/03/26 08:43:38;;;;;;;0.00;0.00;;;;;;;9.81;54.50;99698.16;5011520;28;20190;-54
2022/03/26 08:46:05;;;;;;;0.00;0.00;;;;;;;9.96;54.95;99703.97;5012123;28;20244;-55
2022/03/26 08:48:32;;;;;;;0.00;0.00;;;;;;;10.10;54.37;99698.50;5013150;28;20553;-55
2022/03/26 08:50:59;;;;;;;0.00;0.00;;;;;;;10.30;53.54;99691.69;5012052;28;20180;-55
2022/03/26 08:53:28;;;;;;;20.53;11.30;;;;;;;10.50;52.46;99702.31;5012826;28;20203;-56
2022/03/26 08:55:55;;;;;;;50.37;27.87;;;;;;;10.61;51.89;99702.28;5012097;28;20530;-56
2022/03/26 08:58:22;;;;;;;49.83;26.00;;;;;;;10.73;50.98;99703.06;5012255;28;20699;-56
2022/03/26 09:00:51;;;;;;;46.80;24.50;;;;;;;10.88;51.36;99694.94;5012572;28;20190;-56
2022/03/26 09:03:20;;;;;;;46.03;24.17;;;;;;;10.98;51.95;99703.66;5012987;28;20213;-56
2022/03/26 09:05:47;;;;;;;53.97;25.07;;;;;;;11.19;52.15;99705.47;5009738;28;20216;-56
2022/03/26 09:08:15;;;;;;;43.00;23.20;;;;;;;11.30;52.24;99710.63;5007768;28;20713;-56
2022/03/26 09:10:43;;;;;;;54.80;24.80;;;;;;;11.45;50.72;99705.06;5012015;28;20206;-56
2022/03/26 09:13:10;;;;;;;50.77;25.97;;;;;;;11.57;49.14;99701.41;5012051;28;20681;-56
2022/03/26 09:15:37;;;;;;;48.20;24.63;;;;;;;11.80;49.79;99711.66;5012197;28;20272;-56
2022/03/26 09:18:05;;;;;;;44.87;23.77;;;;;;;11.95;48.36;99704.28;5012692;28;20244;-56
2022/03/26 09:20:32;;;;;;;49.73;24.77;;;;;;;12.12;49.23;99704.66;5012378;28;20199;-56
2022/03/26 09:22:59;;;;;;;47.57;23.40;;;;;;;12.27;48.98;99702.47;5012638;28;20185;-57
2022/03/26 09:25:26;;;;;;;48.57;24.73;;;;;;;12.47;47.81;99693.69;5011996;28;20554;-56
2022/03/26 09:27:54;;;;;;;48.07;23.77;;;;;;;12.56;49.32;99697.25;5012405;28;20205;-56
2022/03/26 09:30:21;;;;;;;43.27;23.13;;;;;;;12.77;46.69;99697.09;5012133;28;20664;-56
2022/03/26 09:32:48;;;;;;;44.87;23.93;;;;;;;13.02;46.40;99699.31;5011885;28;20184;-56
2022/03/26 09:35:15;;;;;;;47.33;23.23;;;;;;;13.42;42.49;99696.50;5011990;28;20284;-56
2022/03/26 09:37:43;;;;;;;40.57;23.43;;;;;;;13.86;41.33;99700.31;5012173;28;20201;-56
2022/03/26 09:40:11;;;;;;;42.27;21.40;;;;;;;14.22;39.09;99702.22;5011838;28;20281;-56
2022/03/26 09:42:39;;;;;;;46.90;24.23;;;;;;;14.32;38.51;99693.28;5008298;28;20194;-56
2022/03/26 09:45:09;;;;;;;41.97;24.00;;;;;;;14.51;38.17;99696.75;5011523;28;20590;-56
2022/03/26 09:47:37;;;;;;;47.20;25.20;;;;;;;14.62;37.50;99695.69;5011574;28;20254;-56
2022/03/26 09:50:06;;;;;;;42.43;24.00;;;;;;;14.78;36.75;99700.31;5011040;28;20207;-56
2022/03/26 09:52:33;;;;;;;46.83;23.83;;;;;;;14.84;36.87;99699.66;5011236;28;20200;-56
2022/03/26 09:55:00;;;;;;;49.47;23.77;;;;;;;14.95;37.97;99692.50;5010876;28;20223;-56
2022/03/26 09:57:27;;;;;;;46.77;24.80;;;;;;;15.13;36.17;99695.94;5011093;28;20207;-56
2022/03/26 09:59:54;;;;;;;47.27;24.07;;;;;;;15.22;35.61;99693.38;5011513;28;20192;-57
2022/03/26 10:02:22;;;;;;;44.73;24.30;;;;;;;15.25;35.39;99693.91;5011887;28;20247;-56
2022/03/26 10:04:49;;;;;;;45.93;22.83;;;;;;;15.38;34.59;99690.84;5011363;28;20195;-56
2022/03/26 10:07:16;;;;;;;47.00;24.43;;;;;;;15.49;36.00;99687.09;5006510;28;20709;-56
2022/03/26 10:09:45;;;;;;;44.80;23.57;;;;;;;15.56;34.66;99688.13;5010821;28;20194;-56
2022/03/26 10:12:13;;;;;;;45.33;24.07;;;;;;;15.63;34.79;99685.72;5011450;28;20193;-56
2022/03/26 10:14:45;;;;;;;46.03;23.47;;;;;;;15.73;34.11;99690.84;5010918;28;20656;-56
2022/03/26 10:17:14;;;;;;;39.30;23.47;;;;;;;15.84;33.40;99684.47;5011457;28;20209;-56
2022/03/26 10:19:48;;;;;;;39.50;23.33;;;;;;;15.90;33.88;99683.88;5011481;28;20189;-56
2022/03/26 10:22:27;;;;;;;42.63;23.07;;;;;;;15.87;33.89;99694.72;5011363;28;20636;-56
2022/03/26 10:24:55;;;;;;;43.80;23.20;;;;;;;15.93;33.45;99678.25;5011315;28;20191;-56
2022/03/26 10:27:22;;;;;;;40.03;22.60;;;;;;;16.05;33.38;99681.44;5011403;28;20212;-56
2022/03/26 10:29:50;;;;;;;43.77;24.03;;;;;;;16.14;33.08;99677.84;5011258;28;20184;-56
2022/03/26 10:32:40;;;;;;;40.50;23.07;;;;;;;16.20;33.17;99679.00;5011373;28;20243;-56
2022/03/26 10:35:11;;;;;;;41.00;22.87;;;;;;;16.34;30.93;99670.47;5010368;28;20199;-56
2022/03/26 10:37:45;;;;;;;44.60;23.83;;;;;;;16.52;31.06;99682.69;5009948;28;20219;-56
2022/03/26 10:40:30;;;;;;;37.20;22.40;;;;;;;16.50;31.05;99676.75;5007730;28;20193;-56
2022/03/26 10:42:59;;;;;;;36.07;21.67;;;;;;;16.48;32.68;99670.81;5010124;28;20188;-56
2022/03/26 10:45:28;;;;;;;40.37;23.37;;;;;;;16.57;30.24;99671.63;5009862;28;20225;-56
2022/03/26 10:47:56;;;;;;;36.23;21.80;;;;;;;16.65;30.35;99664.56;5005024;28;20205;-56
2022/03/26 10:50:25;;;;;;;36.73;21.63;;;;;;;16.73;31.52;99676.91;5010649;28;20203;-56
2022/03/26 10:52:55;;;;;;;37.33;21.80;;;;;;;16.85;31.77;99669.50;5009717;28;20665;-56
2022/03/26 10:55:23;;;;;;;35.20;21.80;;;;;;;16.92;28.94;99657.31;5007115;28;20232;-56
2022/03/26 10:57:50;;;;;;;43.90;23.37;;;;;;;17.01;28.60;99663.41;5009490;28;20230;-56
2022/03/26 11:00:18;;;;;;;37.70;21.67;;;;;;;17.01;27.60;99663.41;5010510;28;20567;-56
2022/03/26 11:02:46;;;;;;;38.47;22.40;;;;;;;17.03;28.03;99665.88;5011057;28;20196;-56
2022/03/26 11:05:13;;;;;;;37.90;22.97;;;;;;;17.07;28.57;99661.91;5010525;28;20205;-56
2022/03/26 11:07:42;;;;;;;37.80;21.00;;;;;;;17.00;28.45;99653.00;5002749;28;20221;-56
2022/03/26 11:10:11;;;;;;;31.53;18.47;;;;;;;17.05;27.10;99666.53;5010571;28;20192;-56
2022/03/26 11:12:43;;;;;;;35.50;21.87;;;;;;;17.09;27.49;99662.56;5010388;28;20197;-56
2022/03/26 11:15:14;;;;;;;41.60;21.80;;;;;;;17.06;27.34;99662.91;5010578;28;20189;-56
2022/03/26 11:18:02;;;;;;;34.50;20.73;;;;;;;17.11;26.58;99657.94;5010798;28;20208;-56
2022/03/26 11:21:10;;;;;;;33.53;19.97;;;;;;;17.21;26.83;99647.22;5010467;28;20560;-56
2022/03/26 11:23:54;;;;;;;35.37;19.90;;;;;;;17.22;26.84;99639.13;4974133;28;20212;-56
2022/03/26 11:26:37;;;;;;;38.57;21.20;;;;;;;17.42;25.80;99646.66;5010283;28;20217;-56
2022/03/26 11:29:30;;;;;;;35.93;21.00;;;;;;;17.48;27.26;99653.09;5010722;28;20193;-56
2022/03/26 11:32:03;;;;;;;34.07;20.13;;;;;;;17.49;25.15;99649.44;5008223;28;20597;-56
2022/03/26 11:34:36;;;;;;;35.37;20.67;;;;;;;17.55;25.16;99648.75;5010299;28;20185;-56
2022/03/26 11:37:11;;;;;;;35.77;20.57;;;;;;;17.53;25.54;99648.91;5010660;28;20210;-56
2022/03/26 11:39:47;;;;;;;32.30;19.77;;;;;;;17.58;26.40;99653.69;5010391;28;20251;-56
2022/03/26 11:42:14;;;;;;;36.43;21.10;;;;;;;17.63;25.72;99645.25;5010596;28;20193;-56